Time;durP1;ratioP1;P1;durP2;ratioP2;P2;SDS_P1;SDS_P2;PMS_P1;PMS_P2;Temp;Humidity;BMP_temperature;BMP_pressure;BME280_temperature;BME280_humidity;BME280_pressure;Samples;Min_cycle;Max_cycle;Signal;HPM_P1;HPM_P2
2022/12/24 00:00:26;;;;;;;5.53;4.70;;;16.60;55.00;;;;;;4965782;29;20082;-68
2022/12/24 00:02:51;;;;;;;6.03;4.47;;;16.70;55.10;;;;;;4965827;29;20027;-68
2022/12/24 00:05:17;;;;;;;5.72;4.20;;;16.60;55.20;;;;;;4964361;29;20211;-68
2022/12/24 00:07:43;;;;;;;5.57;4.45;;;16.60;55.10;;;;;;4965621;29;20065;-68
2022/12/24 00:10:09;;;;;;;5.15;4.15;;;16.70;55.00;;;;;;4965489;29;20050;-68
2022/12/24 00:12:35;;;;;;;4.97;3.97;;;16.70;54.80;;;;;;4964329;29;20034;-68
2022/12/24 00:15:02;;;;;;;6.60;4.85;;;16.80;54.80;;;;;;4948125;29;20373;-68
2022/12/24 00:17:28;;;;;;;4.95;3.88;;;16.90;54.70;;;;;;4956972;29;20054;-68
2022/12/24 00:19:53;;;;;;;5.35;3.97;;;16.90;54.40;;;;;;4965427;29;20023;-68
2022/12/24 00:22:19;;;;;;;7.45;4.38;;;17.00;54.40;;;;;;4965352;29;20431;-67
2022/12/24 00:24:45;;;;;;;5.05;4.28;;;17.00;54.20;;;;;;4964112;29;20031;-68
2022/12/24 00:27:12;;;;;;;5.97;4.28;;;17.00;54.20;;;;;;4980144;28;20077;-67
2022/12/24 00:29:38;;;;;;;7.95;4.20;;;17.10;54.20;;;;;;4964109;29;20466;-67
2022/12/24 00:32:08;;;;;;;5.00;4.20;;;17.10;54.00;;;;;;4965216;29;20067;-69
2022/12/24 00:34:38;;;;;;;5.57;4.50;;;17.10;54.00;;;;;;4965103;29;20051;-68
2022/12/24 00:37:05;;;;;;;5.57;4.22;;;17.10;54.10;;;;;;4964971;29;20027;-68
2022/12/24 00:39:31;;;;;;;4.95;4.38;;;17.10;54.20;;;;;;4965026;29;20038;-68
2022/12/24 00:41:57;;;;;;;5.50;4.25;;;17.00;54.20;;;;;;4965080;29;20025;-68
2022/12/24 00:44:22;;;;;;;6.68;4.95;;;17.00;54.50;;;;;;4964961;29;20059;-67
2022/12/24 00:46:48;;;;;;;5.72;4.40;;;16.90;54.70;;;;;;4964935;29;20031;-68
2022/12/24 00:49:24;;;;;;;7.40;4.30;;;16.80;55.50;;;;;;4964864;29;20058;-69
2022/12/24 00:51:50;;;;;;;5.10;4.13;;;16.70;55.00;;;;;;4964946;29;20038;-69
2022/12/24 00:54:18;;;;;;;4.32;3.90;;;16.70;55.10;;;;;;4947573;29;20019;-68
2022/12/24 00:56:43;;;;;;;6.15;4.38;;;16.70;55.20;;;;;;4964781;29;20027;-68
2022/12/24 00:59:10;;;;;;;7.40;3.80;;;16.70;55.30;;;;;;4964494;29;20061;-69
2022/12/24 01:01:36;;;;;;;5.45;3.65;;;16.60;55.30;;;;;;4964646;29;20074;-69
2022/12/24 01:06:47;;;;;;;5.20;4.10;;;16.60;55.50;;;;;;4964464;29;20383;-68
2022/12/24 01:09:12;;;;;;;4.95;4.00;;;16.50;55.60;;;;;;4979065;28;20056;-67
2022/12/24 01:11:38;;;;;;;7.15;4.68;;;16.50;55.60;;;;;;4963075;29;20023;-67
2022/12/24 01:14:04;;;;;;;6.45;4.53;;;16.60;55.40;;;;;;4964300;29;20197;-67
2022/12/24 01:16:30;;;;;;;5.93;4.07;;;16.60;55.30;;;;;;4964180;29;20027;-69
2022/12/24 01:18:56;;;;;;;6.10;4.18;;;16.60;55.10;;;;;;4931127;29;20093;-71
2022/12/24 01:21:22;;;;;;;5.68;4.18;;;16.60;55.10;;;;;;4946916;29;20314;-70
2022/12/24 01:23:48;;;;;;;6.38;4.57;;;16.60;55.00;;;;;;4962858;29;20051;-69
2022/12/24 01:26:14;;;;;;;5.93;4.03;;;16.70;55.00;;;;;;4962832;29;20023;-70
2022/12/24 01:28:40;;;;;;;5.28;4.38;;;16.70;54.90;;;;;;4961817;28;20102;-70
2022/12/24 01:31:11;;;;;;;5.88;3.78;;;16.70;54.80;;;;;;4946910;29;20034;-69
2022/12/24 01:33:37;;;;;;;7.65;4.55;;;16.80;54.60;;;;;;4964041;29;20089;-69
2022/12/24 01:36:03;;;;;;;5.10;3.67;;;16.90;54.50;;;;;;4946562;29;20026;-70
2022/12/24 01:38:29;;;;;;;4.90;4.00;;;17.00;54.30;;;;;;4963830;29;20345;-69
2022/12/24 01:43:39;;;;;;;5.82;3.97;;;17.00;54.10;;;;;;4963769;29;20042;-69
2022/12/24 01:46:24;;;;;;;5.75;4.18;;;17.10;54.00;;;;;;4963719;29;20342;-70
2022/12/24 01:48:56;;;;;;;6.93;4.18;;;17.10;53.90;;;;;;4946408;29;20255;-69
2022/12/24 01:51:32;;;;;;;6.25;4.38;;;17.20;53.80;;;;;;4963699;29;20034;-69
2022/12/24 01:54:30;;;;;;;4.03;3.63;;;17.20;53.80;;;;;;4946348;29;20019;-69
2022/12/24 01:57:09;;;;;;;4.97;4.45;;;17.20;53.80;;;;;;4963514;29;20238;-71
2022/12/24 01:59:36;;;;;;;;;;;17.20;53.70;;;;;;4963960;29;20038;-69
2022/12/24 02:02:03;;;;;;;6.57;4.43;;;17.10;54.10;;;;;;4963456;29;19902;-69
2022/12/24 02:04:56;;;;;;;4.93;3.78;;;17.10;54.20;;;;;;4963441;29;20423;-69
2022/12/24 02:07:22;;;;;;;4.75;3.70;;;17.00;54.30;;;;;;4963512;29;20433;-69
2022/12/24 02:09:52;;;;;;;5.13;3.60;;;16.90;54.70;;;;;;4963212;29;20414;-69
2022/12/24 02:12:18;;;;;;;5.38;3.80;;;16.90;54.80;;;;;;4963706;29;20062;-69
2022/12/24 02:14:44;;;;;;;5.72;3.97;;;16.70;55.10;;;;;;4946018;29;20041;-67
2022/12/24 02:17:48;;;;;;;5.35;4.03;;;16.80;55.10;;;;;;4963320;29;20219;-72
2022/12/24 02:20:28;;;;;;;5.72;4.38;;;16.70;55.10;;;;;;4963369;29;20037;-69
2022/12/24 02:23:12;;;;;;;5.40;4.13;;;16.70;55.10;;;;;;4962045;29;20302;-69
2022/12/24 02:26:06;;;;;;;5.95;4.47;;;16.60;55.30;;;;;;4962139;29;20027;-70
2022/12/24 02:28:50;;;;;;;5.65;4.03;;;16.60;55.40;;;;;;4963182;29;20116;-69
2022/12/24 02:31:23;;;;;;;4.43;3.53;;;16.60;55.50;;;;;;4978099;28;20113;-69
2022/12/24 02:33:58;;;;;;;5.00;4.30;;;16.60;55.60;;;;;;4963048;29;20022;-69
2022/12/24 02:36:35;;;;;;;6.25;4.32;;;16.60;55.50;;;;;;4961855;29;20330;-69
2022/12/24 02:39:05;;;;;;;5.30;4.28;;;16.60;55.30;;;;;;4945391;29;20019;-71
2022/12/24 02:44:26;;;;;;;4.38;3.83;;;16.60;55.10;;;;;;4963000;29;20026;-69
2022/12/24 02:46:53;;;;;;;5.43;4.10;;;16.60;55.10;;;;;;4962885;29;20019;-69
2022/12/24 02:49:19;;;;;;;4.75;3.88;;;16.60;55.10;;;;;;4962850;29;20034;-69
2022/12/24 02:51:46;;;;;;;5.22;3.90;;;16.70;55.10;;;;;;4962849;29;20019;-69
2022/12/24 02:54:13;;;;;;;6.88;4.30;;;16.70;55.50;;;;;;4961494;29;20035;-70
2022/12/24 02:57:05;;;;;;;5.90;3.72;;;16.80;54.90;;;;;;4962919;29;20078;-70
2022/12/24 02:59:38;;;;;;;5.35;4.07;;;16.90;54.60;;;;;;4962987;29;20027;-70
2022/12/24 03:02:25;;;;;;;4.95;4.20;;;16.90;54.40;;;;;;4962918;29;20027;-69
2022/12/24 03:05:20;;;;;;;5.60;4.35;;;17.00;54.30;;;;;;4962938;29;20219;-70
2022/12/24 03:08:03;;;;;;;5.18;3.63;;;17.10;54.10;;;;;;4959162;29;20039;-70
2022/12/24 03:10:48;;;;;;;5.88;3.85;;;17.20;54.00;;;;;;4942172;29;20064;-68
2022/12/24 03:13:16;;;;;;;4.70;4.22;;;17.20;54.00;;;;;;4959576;29;20086;-69
2022/12/24 03:15:44;;;;;;;4.65;4.10;;;17.20;53.90;;;;;;4961558;29;20065;-70
2022/12/24 03:18:13;;;;;;;5.78;4.20;;;17.30;53.80;;;;;;4961482;29;20039;-67
2022/12/24 03:20:47;;;;;;;;;;;17.30;53.70;;;;;;4961832;29;20070;-67
2022/12/24 03:23:13;;;;;;;4.50;3.70;;;17.20;53.80;;;;;;4977665;28;19911;-68
2022/12/24 03:25:42;;;;;;;8.52;4.18;;;17.10;54.10;;;;;;4961383;29;20208;-68
2022/12/24 03:28:10;;;;;;;5.32;4.03;;;17.00;54.20;;;;;;4961431;29;20027;-68
2022/12/24 03:30:42;;;;;;;5.38;4.00;;;17.00;54.30;;;;;;4962366;29;20032;-67
2022/12/24 03:33:10;;;;;;;5.68;3.83;;;16.90;54.60;;;;;;4962667;29;20037;-67
2022/12/24 03:35:36;;;;;;;4.65;3.85;;;16.80;54.80;;;;;;4962504;29;20026;-68
2022/12/24 03:38:03;;;;;;;5.28;4.10;;;16.80;55.10;;;;;;4962786;29;20233;-68
2022/12/24 03:40:29;;;;;;;3.78;3.42;;;16.70;55.10;;;;;;4962664;29;20086;-67
2022/12/24 03:42:55;;;;;;;6.10;4.38;;;16.70;55.20;;;;;;4962830;29;20097;-67
2022/12/24 03:45:21;;;;;;;6.20;3.97;;;16.70;55.30;;;;;;4962519;29;20335;-67
2022/12/24 03:47:47;;;;;;;4.93;3.70;;;16.70;55.30;;;;;;4962462;29;20035;-69
2022/12/24 03:50:13;;;;;;;5.55;4.18;;;16.60;55.30;;;;;;4962480;28;20098;-71
2022/12/24 03:52:39;;;;;;;5.50;4.00;;;16.60;55.40;;;;;;4963378;29;20270;-68
2022/12/24 03:55:05;;;;;;;4.05;3.60;;;16.60;55.50;;;;;;4964495;29;20073;-67
2022/12/24 03:57:31;;;;;;;4.30;3.78;;;16.50;55.50;;;;;;4965893;29;20023;-68
2022/12/24 03:59:57;;;;;;;4.28;3.65;;;16.60;55.50;;;;;;4965661;29;20027;-68
2022/12/24 04:02:23;;;;;;;4.72;3.70;;;16.60;55.40;;;;;;4965728;29;20031;-69
2022/12/24 04:04:49;;;;;;;3.85;3.30;;;16.60;55.30;;;;;;4965679;29;20026;-71
2022/12/24 04:07:14;;;;;;;5.40;4.15;;;16.60;55.20;;;;;;4964424;29;20029;-69
2022/12/24 04:09:40;;;;;;;4.93;4.03;;;16.70;55.00;;;;;;4965354;29;20374;-68
2022/12/24 04:12:06;;;;;;;5.15;3.78;;;16.70;54.80;;;;;;4965430;29;20342;-68
2022/12/24 04:14:33;;;;;;;4.53;3.85;;;16.80;54.60;;;;;;4948240;29;20031;-68
2022/12/24 04:16:58;;;;;;;5.80;4.07;;;16.90;54.40;;;;;;4965396;29;20031;-70
2022/12/24 04:19:25;;;;;;;5.00;4.10;;;17.00;54.10;;;;;;4965601;29;20042;-67
2022/12/24 04:21:51;;;;;;;4.07;3.33;;;17.10;53.90;;;;;;4963990;29;20074;-68
2022/12/24 04:24:17;;;;;;;5.70;3.60;;;17.10;53.80;;;;;;4948064;29;20019;-68
2022/12/24 04:26:43;;;;;;;4.47;3.50;;;17.10;53.80;;;;;;4964101;29;20041;-68
2022/12/24 04:29:09;;;;;;;4.05;3.30;;;17.20;53.90;;;;;;4964038;29;20035;-69
2022/12/24 04:31:36;;;;;;;4.82;3.83;;;17.20;53.90;;;;;;4965140;29;20042;-67
2022/12/24 04:34:02;;;;;;;5.68;4.10;;;17.20;53.80;;;;;;4963929;29;20098;-68
2022/12/24 04:36:27;;;;;;;5.18;3.78;;;17.30;53.70;;;;;;4964022;29;20038;-68
2022/12/24 04:38:53;;;;;;;5.20;4.05;;;17.30;53.70;;;;;;4964016;29;20027;-68
2022/12/24 04:41:21;;;;;;;4.60;3.25;;;17.30;53.80;;;;;;4947853;29;20200;-70
2022/12/24 04:43:47;;;;;;;5.78;3.50;;;17.20;54.00;;;;;;4963877;29;20338;-69
2022/12/24 04:46:17;;;;;;;7.28;3.90;;;17.10;54.20;;;;;;4963567;29;20039;-69
2022/12/24 04:48:44;;;;;;;3.92;3.42;;;17.10;54.20;;;;;;4963546;29;20023;-67
2022/12/24 04:51:10;;;;;;;5.00;4.00;;;17.10;54.40;;;;;;4963354;29;20030;-68
2022/12/24 04:53:37;;;;;;;3.92;3.53;;;17.00;54.40;;;;;;4963525;29;20027;-69
2022/12/24 04:56:06;;;;;;;4.20;3.25;;;17.00;54.70;;;;;;4964700;29;20103;-68
2022/12/24 04:58:32;;;;;;;;;;;16.90;54.90;;;;;;4965010;29;20307;-67
2022/12/24 05:01:07;;;;;;;5.28;3.97;;;16.80;55.10;;;;;;4947467;29;19911;-67
2022/12/24 05:03:33;;;;;;;5.28;3.70;;;16.70;55.20;;;;;;4947061;29;20061;-69
2022/12/24 05:06:09;;;;;;;3.88;3.45;;;16.70;55.40;;;;;;4964441;29;20035;-68
2022/12/24 05:08:35;;;;;;;5.88;3.90;;;16.70;55.30;;;;;;4964466;29;20026;-68
2022/12/24 05:11:01;;;;;;;4.82;4.10;;;16.60;55.40;;;;;;4964302;29;20356;-67
2022/12/24 05:13:28;;;;;;;3.65;3.35;;;16.60;55.50;;;;;;4964440;29;20061;-68
2022/12/24 05:15:54;;;;;;;4.70;3.58;;;16.50;55.50;;;;;;4963144;29;20039;-69
2022/12/24 05:18:21;;;;;;;7.15;4.00;;;16.60;55.60;;;;;;4964354;29;20042;-68
2022/12/24 05:20:47;;;;;;;4.32;3.70;;;16.50;55.60;;;;;;4964181;29;20196;-67
2022/12/24 05:26:22;;;;;;;4.47;3.72;;;16.60;55.50;;;;;;4964270;29;20022;-67
2022/12/24 05:28:52;;;;;;;4.65;3.75;;;16.60;55.20;;;;;;4964105;29;20031;-67
2022/12/24 05:31:19;;;;;;;5.18;4.65;;;16.70;55.00;;;;;;4964118;29;20062;-67
2022/12/24 05:33:45;;;;;;;3.33;2.95;;;16.80;54.80;;;;;;4964016;29;20536;-68
2022/12/24 05:36:12;;;;;;;5.32;3.63;;;16.80;54.70;;;;;;4963834;29;20023;-67
2022/12/24 05:38:38;;;;;;;6.10;3.90;;;16.90;54.40;;;;;;4963874;29;20050;-67
2022/12/24 05:41:05;;;;;;;4.05;3.28;;;17.00;54.10;;;;;;4962707;29;20019;-67
2022/12/24 05:43:31;;;;;;;3.47;2.83;;;17.10;54.00;;;;;;4978751;28;20050;-70
2022/12/24 05:46:02;;;;;;;4.55;3.70;;;17.20;53.90;;;;;;4962518;29;20098;-68
2022/12/24 05:48:28;;;;;;;3.97;3.03;;;17.20;53.80;;;;;;4962584;29;20062;-68
2022/12/24 05:50:54;;;;;;;4.32;3.75;;;17.20;53.80;;;;;;4962564;29;20057;-67
2022/12/24 05:53:21;;;;;;;5.82;3.60;;;17.30;53.70;;;;;;4946457;29;20034;-68
2022/12/24 05:55:47;;;;;;;5.10;4.00;;;17.30;53.60;;;;;;4963672;29;20065;-68
2022/12/24 05:58:13;;;;;;;4.32;3.50;;;17.30;53.50;;;;;;4946153;29;20235;-68
2022/12/24 06:00:41;;;;;;;5.25;4.32;;;17.30;53.40;;;;;;4963575;29;20026;-68
2022/12/24 06:03:07;;;;;;;4.57;3.78;;;17.30;53.70;;;;;;4963432;29;20022;-68
2022/12/24 06:05:33;;;;;;;4.35;3.45;;;17.20;53.90;;;;;;4962388;29;20042;-68
2022/12/24 06:07:59;;;;;;;4.75;3.50;;;17.20;54.00;;;;;;4946264;29;20019;-68
2022/12/24 06:10:25;;;;;;;5.70;3.45;;;17.10;54.00;;;;;;4963276;29;20370;-67
2022/12/24 06:12:50;;;;;;;5.40;3.95;;;17.10;54.30;;;;;;4962166;29;20031;-67
2022/12/24 06:15:16;;;;;;;4.20;3.05;;;17.00;54.60;;;;;;4945378;29;20035;-70
2022/12/24 06:17:42;;;;;;;4.00;3.58;;;16.80;54.90;;;;;;4945787;29;20272;-67
2022/12/24 06:20:08;;;;;;;3.65;2.88;;;16.90;55.00;;;;;;4945984;29;20223;-68
2022/12/24 06:22:34;;;;;;;4.22;3.60;;;16.80;55.20;;;;;;4961678;29;20215;-67
2022/12/24 06:25:00;;;;;;;4.10;3.53;;;16.70;55.20;;;;;;4962077;29;20059;-67
2022/12/24 06:27:26;;;;;;;5.13;3.67;;;16.70;55.30;;;;;;4961978;29;20315;-69
2022/12/24 06:29:52;;;;;;;4.28;3.25;;;16.70;55.30;;;;;;4961921;29;20031;-70
2022/12/24 06:32:18;;;;;;;4.13;3.63;;;16.60;55.40;;;;;;4963220;29;20023;-68
2022/12/24 06:34:44;;;;;;;3.78;3.40;;;16.60;55.40;;;;;;4977996;28;20039;-67
2022/12/24 06:37:17;;;;;;;4.13;3.20;;;16.50;55.50;;;;;;4961891;29;20023;-67
2022/12/24 06:39:44;;;;;;;4.10;3.30;;;16.50;55.50;;;;;;4945978;29;20189;-68
2022/12/24 06:42:11;;;;;;;5.33;3.67;;;16.50;55.60;;;;;;4963022;29;20351;-67
2022/12/24 06:44:37;;;;;;;4.03;3.22;;;16.60;55.60;;;;;;4962864;29;20035;-71
2022/12/24 06:47:03;;;;;;;3.70;3.38;;;16.60;55.50;;;;;;4963013;29;20255;-68
2022/12/24 06:49:28;;;;;;;3.83;3.40;;;16.60;55.30;;;;;;4961704;29;20118;-67
2022/12/24 06:51:54;;;;;;;4.28;3.28;;;16.70;55.10;;;;;;4963030;29;20322;-67
2022/12/24 06:54:20;;;;;;;4.05;3.15;;;16.80;54.80;;;;;;4962892;29;20074;-66
2022/12/24 06:56:46;;;;;;;6.57;3.22;;;16.90;55.10;;;;;;4963013;29;20218;-67
2022/12/24 06:59:12;;;;;;;4.38;3.47;;;17.00;54.20;;;;;;4962932;29;20057;-67
2022/12/24 07:01:37;;;;;;;4.35;3.30;;;17.20;54.00;;;;;;4961657;29;20319;-67
2022/12/24 07:04:03;;;;;;;4.68;3.28;;;17.20;53.80;;;;;;4961531;29;20094;-67
2022/12/24 07:06:29;;;;;;;4.63;3.75;;;17.20;53.70;;;;;;4961647;29;20111;-67
2022/12/24 07:08:55;;;;;;;3.47;2.90;;;17.30;53.70;;;;;;4962634;29;20268;-67
2022/12/24 07:11:23;;;;;;;4.30;3.00;;;17.20;53.80;;;;;;4961547;29;20030;-68
2022/12/24 07:13:48;;;;;;;4.75;3.80;;;17.20;53.80;;;;;;4962772;29;20019;-67
2022/12/24 07:16:14;;;;;;;4.38;3.40;;;17.20;53.90;;;;;;4961348;29;20038;-66
2022/12/24 07:18:40;;;;;;;3.80;3.17;;;17.10;53.90;;;;;;4962682;29;20079;-67
2022/12/24 07:21:06;;;;;;;4.13;3.53;;;17.00;54.30;;;;;;4962806;29;20238;-67
2022/12/24 07:23:32;;;;;;;4.38;3.63;;;17.00;54.60;;;;;;4962743;29;20027;-71
2022/12/24 07:26:00;;;;;;;4.65;3.30;;;16.90;54.80;;;;;;4964196;28;20030;-67
2022/12/24 07:28:26;;;;;;;5.28;3.70;;;16.80;55.00;;;;;;4949234;29;20023;-69
2022/12/24 07:30:52;;;;;;;4.35;3.45;;;16.80;55.10;;;;;;4966348;29;20038;-68
2022/12/24 07:33:18;;;;;;;3.90;3.45;;;16.70;55.30;;;;;;4966376;29;20023;-67
2022/12/24 07:35:43;;;;;;;4.07;3.67;;;16.70;55.30;;;;;;4948940;29;20326;-69
2022/12/24 07:38:09;;;;;;;3.83;3.20;;;16.70;55.50;;;;;;4966090;29;20023;-68
2022/12/24 07:40:35;;;;;;;5.13;3.40;;;16.70;55.40;;;;;;4966029;29;20094;-67
2022/12/24 07:43:01;;;;;;;3.65;3.15;;;16.60;55.40;;;;;;4964799;29;20426;-67
2022/12/24 07:45:27;;;;;;;4.13;3.40;;;16.60;55.50;;;;;;4964807;29;20027;-67
2022/12/24 07:47:53;;;;;;;3.60;3.03;;;16.60;55.50;;;;;;4965999;29;20031;-68
2022/12/24 07:50:20;;;;;;;4.63;3.38;;;16.60;55.50;;;;;;4965641;29;20320;-67
2022/12/24 07:52:49;;;;;;;3.85;3.10;;;16.50;55.70;;;;;;4965841;29;20226;-67
2022/12/24 07:55:14;;;;;;;;;;;16.50;56.30;;;;;;4966129;29;20019;-67
2022/12/24 07:57:40;;;;;;;3.72;3.35;;;16.50;55.70;;;;;;4980731;28;19961;-68
2022/12/24 08:00:06;;;;;;;4.63;3.35;;;16.50;55.60;;;;;;4965786;29;20027;-67
2022/12/24 08:02:32;;;;;;;5.05;3.20;;;16.60;55.50;;;;;;4965656;29;20027;-67
2022/12/24 08:04:58;;;;;;;3.50;3.13;;;16.70;55.10;;;;;;4965801;29;20058;-67
2022/12/24 08:07:24;;;;;;;4.07;3.40;;;16.80;54.90;;;;;;4965690;29;20078;-70
2022/12/24 08:09:50;;;;;;;3.63;3.33;;;16.90;54.90;;;;;;4965401;29;20110;-67
2022/12/24 08:12:15;;;;;;;3.72;3.25;;;17.00;54.50;;;;;;4964174;29;20019;-67
2022/12/24 08:14:41;;;;;;;4.35;3.25;;;17.00;54.40;;;;;;4965435;29;20082;-67
2022/12/24 08:17:07;;;;;;;3.50;3.00;;;17.00;54.30;;;;;;4965509;29;20062;-67
2022/12/24 08:19:33;;;;;;;3.60;2.95;;;17.00;54.10;;;;;;4980309;28;20031;-68
2022/12/24 08:21:58;;;;;;;3.75;3.22;;;17.10;54.20;;;;;;4965384;29;20027;-67
2022/12/24 08:24:24;;;;;;;3.95;3.13;;;17.00;54.30;;;;;;4965222;29;20350;-69
2022/12/24 08:26:52;;;;;;;3.10;2.80;;;17.00;54.50;;;;;;4965276;29;20051;-67
2022/12/24 08:29:18;;;;;;;3.63;3.10;;;16.90;54.60;;;;;;4964047;29;20035;-67
2022/12/24 08:31:44;;;;;;;3.67;3.28;;;16.90;54.80;;;;;;4948049;29;20414;-68
2022/12/24 08:34:11;;;;;;;4.00;3.53;;;16.80;54.80;;;;;;4963819;29;20098;-68
2022/12/24 08:36:37;;;;;;;4.22;3.25;;;16.80;54.90;;;;;;4965035;28;20038;-69
2022/12/24 08:39:03;;;;;;;3.72;3.03;;;16.70;55.00;;;;;;4964754;29;20015;-67
2022/12/24 08:41:32;;;;;;;3.55;3.22;;;16.70;55.60;;;;;;4965091;29;20304;-68
2022/12/24 08:43:58;;;;;;;3.33;2.92;;;16.80;55.00;;;;;;4965080;29;20088;-67
2022/12/24 08:46:24;;;;;;;3.47;2.97;;;16.70;55.00;;;;;;4965031;29;20046;-68
2022/12/24 08:48:50;;;;;;;3.30;2.80;;;16.70;55.00;;;;;;4964874;29;20030;-66
2022/12/24 08:51:18;;;;;;;3.85;3.25;;;16.70;55.00;;;;;;4965100;29;20098;-69
2022/12/24 08:53:44;;;;;;;3.75;3.38;;;16.80;55.00;;;;;;4964823;29;20038;-67
2022/12/24 08:56:11;;;;;;;6.22;3.15;;;16.80;54.80;;;;;;4964750;29;20038;-70
2022/12/24 08:58:37;;;;;;;4.55;3.20;;;16.80;54.80;;;;;;4979456;28;20027;-67
2022/12/24 09:01:21;;;;;;;4.07;3.67;;;16.80;54.80;;;;;;4963498;29;20026;-66
2022/12/24 09:03:47;;;;;;;3.30;2.90;;;16.90;54.60;;;;;;4964688;29;20051;-66
2022/12/24 09:06:14;;;;;;;3.53;3.22;;;16.90;54.50;;;;;;4963296;29;20107;-68
2022/12/24 09:08:40;;;;;;;3.97;3.10;;;16.80;54.60;;;;;;4964333;29;20035;-66
2022/12/24 09:11:12;;;;;;;3.30;3.00;;;16.80;54.70;;;;;;4946954;29;20059;-66
2022/12/24 09:13:39;;;;;;;4.03;3.17;;;16.80;54.90;;;;;;4964408;29;20034;-69
2022/12/24 09:16:05;;;;;;;3.40;3.10;;;16.80;54.80;;;;;;4963087;29;20055;-68
2022/12/24 09:18:32;;;;;;;3.88;2.97;;;16.80;54.90;;;;;;4963836;29;20207;-67
2022/12/24 09:21:07;;;;;;;3.92;3.10;;;16.80;55.00;;;;;;4964289;29;20392;-67
2022/12/24 09:23:40;;;;;;;4.25;3.20;;;16.80;55.10;;;;;;4963080;29;20086;-67
2022/12/24 09:26:16;;;;;;;4.47;3.58;;;16.80;55.00;;;;;;4964390;29;20042;-67
2022/12/24 09:28:42;;;;;;;3.05;2.75;;;16.80;54.80;;;;;;4963892;29;20069;-67
2022/12/24 09:31:09;;;;;;;3.20;2.72;;;16.80;54.60;;;;;;4964190;29;20051;-69
2022/12/24 09:33:38;;;;;;;3.92;3.22;;;16.90;54.70;;;;;;4964097;29;20027;-66
2022/12/24 09:36:05;;;;;;;3.72;3.30;;;16.90;54.60;;;;;;4964073;29;20019;-67
2022/12/24 09:38:31;;;;;;;3.30;3.00;;;16.90;54.50;;;;;;4964034;29;20038;-67
2022/12/24 09:40:58;;;;;;;3.95;3.22;;;16.90;54.50;;;;;;4978952;28;20023;-66
2022/12/24 09:43:28;;;;;;;3.47;3.00;;;16.90;54.40;;;;;;4962408;29;20066;-69
2022/12/24 09:46:21;;;;;;;3.13;2.83;;;17.00;54.30;;;;;;4963933;29;20019;-70
2022/12/24 09:48:53;;;;;;;4.60;3.30;;;17.00;54.00;;;;;;4963245;28;20243;-67
2022/12/24 09:51:35;;;;;;;3.42;2.85;;;17.10;54.20;;;;;;4963523;29;20019;-67
2022/12/24 09:54:04;;;;;;;3.70;3.13;;;17.10;54.10;;;;;;4963612;29;20055;-71
2022/12/24 09:56:47;;;;;;;3.50;2.92;;;17.20;54.10;;;;;;4963745;29;20334;-66
2022/12/24 09:59:23;;;;;;;3.30;2.80;;;17.20;53.80;;;;;;4963665;29;20027;-68
2022/12/24 10:01:52;;;;;;;3.53;2.95;;;17.30;53.70;;;;;;4963429;29;20026;-67
2022/12/24 10:04:22;;;;;;;3.42;2.65;;;17.30;53.70;;;;;;4963571;29;20027;-67
2022/12/24 10:07:01;;;;;;;3.03;2.72;;;17.30;53.70;;;;;;4962268;29;20074;-66
2022/12/24 10:09:52;;;;;;;3.00;2.65;;;17.40;53.60;;;;;;4963301;29;20070;-69
2022/12/24 10:12:36;;;;;;;2.97;2.50;;;17.40;53.40;;;;;;4963418;29;20090;-69
2022/12/24 10:15:04;;;;;;;3.25;2.95;;;17.40;53.50;;;;;;4962102;29;20302;-70
2022/12/24 10:17:49;;;;;;;;;;;17.40;53.60;;;;;;4963772;29;20051;-68
2022/12/24 10:20:45;;;;;;;4.20;3.08;;;17.40;53.50;;;;;;4963320;29;20237;-70
2022/12/24 10:23:20;;;;;;;3.50;2.92;;;17.30;53.60;;;;;;4963248;29;20159;-67
2022/12/24 10:26:09;;;;;;;3.65;2.90;;;17.30;53.90;;;;;;4963337;29;20026;-68
2022/12/24 10:28:51;;;;;;;4.07;2.60;;;17.30;53.90;;;;;;4962102;29;20026;-68
2022/12/24 10:31:22;;;;;;;3.55;2.67;;;17.20;54.00;;;;;;4963125;29;20027;-68
2022/12/24 10:33:52;;;;;;;4.75;2.95;;;17.20;54.00;;;;;;4963168;29;20051;-69
2022/12/24 10:36:22;;;;;;;3.40;2.88;;;17.20;54.10;;;;;;4963162;29;20042;-69
2022/12/24 10:38:48;;;;;;;3.47;2.80;;;17.10;54.20;;;;;;4963092;29;20011;-69
2022/12/24 10:41:15;;;;;;;3.17;2.70;;;17.20;54.20;;;;;;4963101;29;20326;-67
2022/12/24 10:43:44;;;;;;;4.32;3.13;;;17.20;54.10;;;;;;4962881;29;20078;-66
2022/12/24 10:46:45;;;;;;;3.00;2.70;;;17.20;54.10;;;;;;4963119;29;20035;-67
2022/12/24 10:49:29;;;;;;;3.03;2.70;;;17.20;54.00;;;;;;4940306;29;20102;-68
2022/12/24 10:52:15;;;;;;;3.50;2.90;;;17.10;53.90;;;;;;4963028;29;20046;-68
2022/12/24 10:55:14;;;;;;;3.50;2.85;;;17.10;54.10;;;;;;4963021;29;20034;-67
2022/12/24 10:57:41;;;;;;;3.10;2.63;;;17.20;54.00;;;;;;4962801;29;20023;-66
2022/12/24 11:00:19;;;;;;;4.20;3.00;;;17.10;54.10;;;;;;4963115;28;20039;-67
2022/12/24 11:02:47;;;;;;;3.35;3.00;;;17.10;54.00;;;;;;4965683;29;20030;-66
2022/12/24 11:05:31;;;;;;;3.45;2.30;;;17.10;54.10;;;;;;4949582;29;20027;-66
2022/12/24 11:08:19;;;;;;;3.78;2.63;;;17.10;54.00;;;;;;4966876;29;20326;-67
2022/12/24 11:10:54;;;;;;;3.13;2.58;;;17.10;54.00;;;;;;4966405;29;20122;-66
2022/12/24 11:13:40;;;;;;;3.47;3.10;;;17.10;53.90;;;;;;4966640;29;20027;-66
2022/12/24 11:16:34;;;;;;;3.22;2.92;;;17.20;53.90;;;;;;4966444;29;20031;-66
2022/12/24 11:19:03;;;;;;;3.20;2.88;;;17.20;53.80;;;;;;4965173;29;20029;-68
2022/12/24 11:21:38;;;;;;;2.85;2.65;;;17.20;54.00;;;;;;4966361;29;20331;-67
2022/12/24 11:24:13;;;;;;;3.13;2.55;;;17.10;54.00;;;;;;4966532;29;20212;-67
2022/12/24 11:26:42;;;;;;;3.05;2.72;;;17.10;54.00;;;;;;4966419;29;20091;-67
2022/12/24 11:29:14;;;;;;;2.58;2.38;;;17.10;54.20;;;;;;4966384;29;20315;-66
2022/12/24 11:31:41;;;;;;;3.15;2.72;;;17.10;54.10;;;;;;4966426;29;20030;-66
2022/12/24 11:34:21;;;;;;;3.03;2.72;;;17.10;54.00;;;;;;4966233;29;20023;-66
2022/12/24 11:36:48;;;;;;;3.08;2.55;;;17.10;53.90;;;;;;4964998;29;20102;-66
2022/12/24 11:39:25;;;;;;;2.97;2.45;;;17.10;54.00;;;;;;4966119;29;20022;-68
2022/12/24 11:41:53;;;;;;;2.80;2.50;;;17.10;54.00;;;;;;4966216;29;20390;-70
2022/12/24 11:44:27;;;;;;;3.23;2.93;;;17.10;54.10;;;;;;4966243;29;20692;-66
2022/12/24 11:46:57;;;;;;;2.45;2.25;;;17.10;54.20;;;;;;4966170;29;20549;-68
2022/12/24 11:49:30;;;;;;;2.80;2.45;;;17.10;54.20;;;;;;4965977;29;20158;-67
2022/12/24 11:52:09;;;;;;;2.50;2.00;;;17.10;54.10;;;;;;4964779;29;20357;-67
2022/12/24 11:55:11;;;;;;;4.53;2.67;;;17.00;54.10;;;;;;4966145;29;20035;-67
2022/12/24 11:57:47;;;;;;;3.63;2.65;;;17.00;54.10;;;;;;4965329;29;20027;-68
2022/12/24 12:00:13;;;;;;;4.97;2.60;;;17.00;54.20;;;;;;4965944;29;20087;-67
2022/12/24 12:02:42;;;;;;;3.25;2.58;;;17.00;54.20;;;;;;4965826;29;20058;-69
2022/12/24 12:05:17;;;;;;;;;;;17.00;54.30;;;;;;4966254;29;20030;-66
2022/12/24 12:07:46;;;;;;;3.72;2.78;;;17.00;54.20;;;;;;4965764;29;19946;-67
2022/12/24 12:10:24;;;;;;;2.83;2.50;;;17.10;54.20;;;;;;4948152;29;20165;-66
2022/12/24 12:13:04;;;;;;;3.17;2.50;;;17.20;53.90;;;;;;4964618;28;20031;-68
2022/12/24 12:16:03;;;;;;;2.80;2.55;;;17.30;53.70;;;;;;4965530;29;20046;-67
2022/12/24 12:18:37;;;;;;;2.88;2.30;;;17.30;53.60;;;;;;4948106;29;20094;-66
2022/12/24 12:21:09;;;;;;;3.50;2.85;;;17.40;53.50;;;;;;4965397;29;20308;-67
2022/12/24 12:23:43;;;;;;;2.72;2.45;;;17.50;53.40;;;;;;4965568;29;20051;-67
2022/12/24 12:26:32;;;;;;;2.80;2.60;;;17.50;53.00;;;;;;4948326;29;20588;-69
2022/12/24 12:29:09;;;;;;;2.95;2.55;;;17.60;53.00;;;;;;4965529;29;20019;-66
2022/12/24 12:31:47;;;;;;;3.17;2.88;;;17.60;53.20;;;;;;4980416;28;20024;-67
2022/12/24 12:34:19;;;;;;;2.38;2.17;;;17.50;53.30;;;;;;4965314;29;20027;-68
2022/12/24 12:36:51;;;;;;;3.20;2.65;;;17.50;53.30;;;;;;4965314;29;20027;-72
2022/12/24 12:39:17;;;;;;;3.05;2.70;;;17.50;53.20;;;;;;4965362;29;20046;-70
2022/12/24 12:42:03;;;;;;;3.38;2.63;;;17.60;53.20;;;;;;4963847;29;20047;-67
2022/12/24 12:44:41;;;;;;;3.88;2.88;;;17.70;53.10;;;;;;4957840;29;20043;-68
2022/12/24 12:47:28;;;;;;;4.80;3.27;;;17.70;52.80;;;;;;4964930;29;20023;-67
2022/12/24 12:50:22;;;;;;;3.20;2.60;;;17.70;52.70;;;;;;4963631;29;20277;-67
2022/12/24 12:53:06;;;;;;;3.15;2.67;;;17.80;52.60;;;;;;4963926;29;20058;-66
2022/12/24 12:55:55;;;;;;;2.20;1.95;;;18.00;52.50;;;;;;4964947;29;20079;-66
2022/12/24 12:58:33;;;;;;;3.20;2.70;;;18.20;51.60;;;;;;4963568;29;20023;-67
2022/12/24 13:01:23;;;;;;;3.30;3.00;;;18.50;50.90;;;;;;4963451;29;20015;-66
2022/12/24 13:04:15;;;;;;;2.92;2.63;;;18.40;51.00;;;;;;4964811;29;20022;-67
2022/12/24 13:07:02;;;;;;;3.40;2.50;;;18.30;51.20;;;;;;4964818;29;20054;-67
2022/12/24 13:09:45;;;;;;;2.90;2.53;;;18.20;51.40;;;;;;4964487;29;20158;-67
2022/12/24 13:12:26;;;;;;;2.58;2.38;;;18.10;51.80;;;;;;4964610;29;20220;-67
2022/12/24 13:14:57;;;;;;;4.32;2.22;;;17.90;52.40;;;;;;4964406;29;20067;-66
2022/12/24 13:17:47;;;;;;;3.35;2.25;;;17.90;52.50;;;;;;4964303;29;20046;-67